Weather at Far Eastern Memorial Hospital Heliport

Public forecast

Using degrees Celsius for public forecast. Weather courtesy of forecast.io.

Closest aviation weather report (METAR) to Far Eastern Memorial Hospital Heliport

Closest report is Taipei Songshan Airport, 6.9 nm (12.8 km) NE. Retrieved 2020/12/04 10:30 UTC (0 seconds ago):

RCSS 041030Z 10014KT 9999 -RA FEW008 BKN025 BKN040 17/16 Q1022 NOSIG RMK A3018

Closest aviation forecast (TAF) to Far Eastern Memorial Hospital Heliport

Closest forecast is Taipei Songshan Airport, 6.9 nm (12.8 km) NE. Retrieved 2020/12/04 06:00 UTC (4 hours ago):

TAF RCSS 040500Z 0406/0506 10012KT 9999 FEW010 BKN032 BKN060 TEMPO 0406/0410 09015G25KT 5000 RA FEW006 BKN020 BKN050 TEMPO 0412/0418 4000 RA FEW005 BKN018 BKN040 TEMPO 0420/0501 08007KT FEW008 BKN022 BKN050 TEMPO 0502/0506 08017KT 5000 RA FEW006 BKN018 BKN040